createdAt,value
2023-12-11T00:02:16.634Z,97.22
2023-12-11T00:04:44.380Z,96.65
2023-12-11T00:07:13.393Z,97.03
2023-12-11T00:09:41.145Z,97.76
2023-12-11T00:12:09.202Z,97.20
2023-12-11T00:14:36.812Z,97.06
2023-12-11T00:17:04.548Z,97.48
2023-12-11T00:19:32.898Z,97.76
2023-12-11T00:22:00.606Z,97.72
2023-12-11T00:24:29.546Z,97.57
2023-12-11T00:26:57.075Z,97.43
2023-12-11T00:29:24.635Z,97.21
2023-12-11T00:31:52.190Z,97.27
2023-12-11T00:34:19.976Z,97.67
2023-12-11T00:36:48.616Z,96.90
2023-12-11T00:39:17.401Z,97.03
2023-12-11T00:41:46.718Z,97.25
2023-12-11T00:44:14.282Z,97.18
2023-12-11T00:46:41.875Z,97.54
2023-12-11T00:49:10.019Z,97.97
2023-12-11T00:51:37.756Z,97.65
2023-12-11T00:54:05.574Z,98.06
2023-12-11T00:56:33.138Z,97.52
2023-12-11T00:59:02.088Z,98.15
2023-12-11T01:01:29.801Z,97.93
2023-12-11T01:03:57.427Z,97.72
2023-12-11T01:06:25.007Z,97.73
2023-12-11T01:08:52.567Z,98.25
2023-12-11T01:11:20.124Z,97.70
2023-12-11T01:13:47.732Z,97.38
2023-12-11T01:16:16.779Z,97.57
2023-12-11T01:18:45.196Z,98.15
2023-12-11T01:21:12.877Z,97.49
2023-12-11T01:23:41.233Z,97.77
2023-12-11T01:26:08.779Z,97.95
2023-12-11T01:28:36.750Z,98.51
2023-12-11T01:31:04.616Z,98.97
2023-12-11T01:33:33.795Z,99.38
2023-12-11T01:36:01.390Z,98.90
2023-12-11T01:38:28.943Z,98.78
2023-12-11T01:40:56.618Z,98.94
2023-12-11T01:43:25.995Z,99.07
2023-12-11T01:46:02.077Z,98.95
2023-12-11T01:48:30.154Z,98.74
2023-12-11T01:50:59.233Z,99.45
2023-12-11T01:53:27.885Z,99.36
2023-12-11T01:55:55.773Z,99.16
2023-12-11T01:58:23.737Z,99.56
2023-12-11T02:00:51.374Z,98.96
2023-12-11T02:03:19.815Z,99.78
2023-12-11T02:05:47.676Z,99.31
2023-12-11T02:08:17.776Z,99.87
2023-12-11T02:10:45.670Z,99.41
2023-12-11T02:13:13.406Z,100.00
2023-12-11T02:15:42.087Z,99.82
2023-12-11T02:18:10.925Z,98.90
2023-12-11T02:20:39.512Z,99.98
2023-12-11T02:23:10.497Z,99.88
2023-12-11T02:25:39.795Z,100.00
2023-12-11T02:28:08.882Z,100.00
2023-12-11T02:30:38.711Z,100.00
2023-12-11T02:33:06.787Z,100.00
2023-12-11T02:35:34.434Z,100.00
2023-12-11T02:38:01.972Z,99.73
2023-12-11T02:40:29.548Z,100.00
2023-12-11T02:42:57.179Z,100.00
2023-12-11T02:45:26.099Z,100.00
2023-12-11T02:47:58.091Z,100.00
2023-12-11T02:50:25.862Z,100.00
2023-12-11T02:52:53.410Z,100.00
2023-12-11T02:55:20.938Z,100.00
2023-12-11T02:57:48.532Z,100.00
2023-12-11T03:00:16.300Z,100.00
2023-12-11T03:02:45.295Z,100.00
2023-12-11T03:05:12.881Z,100.00
2023-12-11T03:07:40.417Z,100.00
2023-12-11T03:10:09.427Z,100.00
2023-12-11T03:12:37.166Z,100.00
2023-12-11T03:15:05.769Z,100.00
2023-12-11T03:17:33.592Z,100.00
2023-12-11T03:20:02.864Z,100.00
2023-12-11T03:22:30.581Z,100.00
2023-12-11T03:24:58.212Z,100.00
2023-12-11T03:27:25.763Z,100.00
2023-12-11T03:29:53.332Z,100.00
2023-12-11T03:32:20.859Z,100.00
2023-12-11T03:34:48.594Z,100.00
2023-12-11T03:37:17.507Z,100.00
2023-12-11T03:39:45.121Z,100.00
2023-12-11T03:42:12.665Z,100.00
2023-12-11T03:44:40.218Z,100.00
2023-12-11T03:47:07.816Z,100.00
2023-12-11T03:49:35.552Z,100.00
2023-12-11T03:52:03.604Z,100.00
2023-12-11T03:54:32.667Z,100.00
2023-12-11T03:57:00.257Z,100.00
2023-12-11T03:59:27.831Z,100.00
2023-12-11T04:01:55.533Z,100.00
2023-12-11T04:04:23.298Z,100.00
2023-12-11T04:06:50.934Z,100.00
2023-12-11T04:09:18.555Z,100.00
2023-12-11T04:11:47.492Z,100.00
2023-12-11T04:14:15.043Z,100.00
2023-12-11T04:16:43.705Z,100.00
2023-12-11T04:19:12.397Z,100.00
2023-12-11T04:21:40.205Z,100.00
2023-12-11T04:24:07.852Z,100.00
2023-12-11T04:26:35.668Z,100.00
2023-12-11T04:29:04.541Z,100.00
2023-12-11T04:31:32.119Z,100.00
2023-12-11T04:33:59.795Z,100.00
2023-12-11T04:36:27.588Z,100.00
2023-12-11T04:38:55.119Z,100.00
2023-12-11T04:41:22.722Z,100.00
2023-12-11T04:43:50.274Z,100.00
2023-12-11T04:46:19.321Z,100.00
2023-12-11T04:48:46.926Z,100.00
2023-12-11T04:51:14.807Z,100.00
2023-12-11T04:53:42.343Z,100.00
2023-12-11T04:56:10.868Z,100.00
2023-12-11T04:58:38.404Z,100.00
2023-12-11T05:01:06.259Z,100.00
2023-12-11T05:03:35.277Z,100.00
2023-12-11T05:06:02.860Z,100.00
2023-12-11T05:08:30.859Z,100.00
2023-12-11T05:10:58.535Z,100.00
2023-12-11T05:13:26.073Z,100.00
2023-12-11T05:15:53.703Z,100.00
2023-12-11T05:18:21.579Z,100.00
2023-12-11T05:20:50.521Z,100.00
2023-12-11T05:23:18.062Z,100.00
2023-12-11T05:25:45.620Z,100.00
2023-12-11T05:28:13.255Z,100.00
2023-12-11T05:30:40.959Z,100.00
2023-12-11T05:33:08.619Z,100.00
2023-12-11T05:35:36.273Z,100.00
2023-12-11T05:38:05.171Z,100.00
2023-12-11T05:40:32.758Z,100.00
2023-12-11T05:43:00.367Z,100.00
2023-12-11T05:45:28.089Z,100.00
2023-12-11T05:47:55.653Z,100.00
2023-12-11T05:50:23.733Z,100.00
2023-12-11T05:52:51.378Z,100.00
2023-12-11T05:55:20.345Z,100.00
2023-12-11T05:57:49.074Z,100.00
2023-12-11T06:00:17.631Z,100.00
2023-12-11T06:02:45.210Z,100.00
2023-12-11T06:05:13.375Z,100.00
2023-12-11T06:07:41.870Z,100.00
2023-12-11T06:10:09.919Z,100.00
2023-12-11T06:12:38.853Z,100.00
2023-12-11T06:15:07.482Z,100.00
2023-12-11T06:17:35.486Z,100.00
2023-12-11T06:20:04.610Z,100.00
2023-12-11T06:22:32.275Z,100.00
2023-12-11T06:24:59.955Z,100.00
2023-12-11T06:27:29.143Z,100.00
2023-12-11T06:29:58.332Z,100.00
2023-12-11T06:32:26.373Z,100.00
2023-12-11T06:34:54.236Z,100.00
2023-12-11T06:37:21.987Z,100.00
2023-12-11T06:39:50.117Z,100.00
2023-12-11T06:42:17.742Z,100.00
2023-12-11T06:44:45.295Z,100.00
2023-12-11T06:47:14.742Z,100.00
2023-12-11T06:49:43.593Z,100.00
2023-12-11T06:52:11.426Z,100.00
2023-12-11T06:54:39.047Z,100.00
2023-12-11T06:57:06.871Z,100.00
2023-12-11T06:59:34.437Z,100.00
2023-12-11T07:02:02.181Z,100.00
2023-12-11T07:04:30.291Z,100.00
2023-12-11T07:06:58.355Z,100.00
2023-12-11T07:09:26.565Z,100.00
2023-12-11T07:11:54.181Z,100.00
2023-12-11T07:14:21.749Z,100.00
2023-12-11T07:16:49.274Z,100.00
2023-12-11T07:19:16.987Z,100.00
2023-12-11T07:21:46.635Z,100.00
2023-12-11T07:24:14.201Z,100.00
2023-12-11T07:26:41.800Z,100.00
2023-12-11T07:29:09.714Z,100.00
2023-12-11T07:31:37.401Z,100.00
2023-12-11T07:34:05.053Z,100.00
2023-12-11T07:36:32.699Z,100.00
2023-12-11T07:39:01.625Z,100.00
2023-12-11T07:41:29.236Z,100.00
2023-12-11T07:43:56.800Z,100.00
2023-12-11T07:46:24.397Z,100.00
2023-12-11T07:48:53.102Z,100.00
2023-12-11T07:51:21.392Z,100.00
2023-12-11T07:53:49.313Z,100.00
2023-12-11T07:56:21.878Z,100.00
2023-12-11T07:58:49.524Z,100.00
2023-12-11T08:01:17.397Z,100.00
2023-12-11T08:03:45.646Z,100.00
2023-12-11T08:06:13.690Z,100.00
2023-12-11T08:08:44.422Z,100.00
2023-12-11T08:11:22.853Z,100.00
2023-12-11T08:13:50.873Z,100.00
2023-12-11T08:16:19.088Z,100.00
2023-12-11T08:18:48.147Z,100.00
2023-12-11T08:21:17.341Z,100.00
2023-12-11T08:23:45.845Z,100.00
2023-12-11T08:26:13.908Z,100.00
2023-12-11T08:28:42.821Z,100.00
2023-12-11T08:31:11.114Z,100.00
2023-12-11T08:33:38.892Z,100.00
2023-12-11T08:36:07.391Z,100.00
2023-12-11T08:38:35.121Z,100.00
2023-12-11T08:41:02.760Z,100.00
2023-12-11T08:43:30.461Z,100.00
2023-12-11T08:45:59.514Z,100.00
2023-12-11T08:48:28.784Z,100.00
2023-12-11T08:50:56.814Z,100.00
2023-12-11T08:53:24.932Z,100.00
2023-12-11T08:55:52.642Z,100.00
2023-12-11T08:58:20.340Z,100.00
2023-12-11T09:00:48.350Z,100.00
2023-12-11T09:03:17.341Z,100.00
2023-12-11T09:05:45.036Z,100.00
2023-12-11T09:08:12.671Z,100.00
2023-12-11T09:10:41.966Z,100.00
2023-12-11T09:13:09.641Z,100.00
2023-12-11T09:15:37.605Z,100.00
2023-12-11T09:18:07.445Z,100.00
2023-12-11T09:20:36.484Z,100.00
2023-12-11T09:23:04.133Z,100.00
2023-12-11T09:25:33.053Z,100.00
2023-12-11T09:28:01.564Z,100.00
2023-12-11T09:30:29.720Z,100.00
2023-12-11T09:32:57.543Z,100.00
2023-12-11T09:35:25.349Z,100.00
2023-12-11T09:37:54.318Z,100.00
2023-12-11T09:40:22.193Z,100.00
2023-12-11T09:42:51.948Z,100.00
2023-12-11T09:45:22.612Z,100.00
2023-12-11T09:48:04.528Z,100.00
2023-12-11T09:50:39.070Z,100.00
2023-12-11T09:53:09.362Z,100.00
2023-12-11T09:55:37.038Z,100.00
2023-12-11T09:58:05.904Z,100.00
2023-12-11T10:00:33.695Z,100.00
2023-12-11T10:03:03.033Z,100.00
2023-12-11T10:05:31.898Z,100.00
2023-12-11T10:07:59.613Z,100.00
2023-12-11T10:10:31.924Z,100.00
2023-12-11T10:13:00.084Z,100.00
2023-12-11T10:15:28.882Z,100.00
2023-12-11T10:18:07.970Z,100.00
2023-12-11T10:20:36.875Z,100.00
2023-12-11T10:23:15.183Z,100.00
2023-12-11T10:25:45.757Z,100.00
2023-12-11T10:28:13.677Z,100.00
2023-12-11T10:30:52.287Z,100.00
2023-12-11T10:33:20.774Z,100.00
2023-12-11T10:35:48.878Z,100.00
2023-12-11T10:38:22.992Z,100.00
2023-12-11T10:40:53.259Z,99.98
2023-12-11T10:43:21.206Z,99.73
2023-12-11T10:45:51.719Z,99.57
2023-12-11T10:48:21.979Z,99.65
2023-12-11T10:50:50.135Z,99.57
2023-12-11T10:53:18.348Z,99.74
2023-12-11T10:55:46.510Z,99.51
2023-12-11T10:58:15.693Z,99.98
2023-12-11T11:00:43.706Z,100.00
2023-12-11T11:03:12.423Z,100.00
2023-12-11T11:05:40.590Z,100.00
2023-12-11T11:08:25.735Z,100.00
2023-12-11T11:10:56.978Z,100.00
2023-12-11T11:13:30.311Z,99.96
2023-12-11T11:15:58.252Z,100.00
2023-12-11T11:18:25.924Z,100.00
2023-12-11T11:21:13.181Z,100.00
2023-12-11T11:23:44.645Z,100.00
2023-12-11T11:26:35.720Z,100.00
2023-12-11T11:29:05.953Z,100.00
2023-12-11T11:31:52.608Z,100.00
2023-12-11T11:34:45.751Z,100.00
2023-12-11T11:37:15.818Z,100.00
2023-12-11T11:39:59.829Z,99.52
2023-12-11T11:42:27.856Z,99.87
2023-12-11T11:44:57.547Z,99.73
2023-12-11T11:47:26.570Z,99.67
2023-12-11T11:49:54.730Z,99.30
2023-12-11T11:52:26.819Z,99.66
2023-12-11T11:54:57.189Z,98.21
2023-12-11T11:57:28.976Z,97.50
2023-12-11T11:59:57.278Z,98.15
2023-12-11T12:02:27.342Z,97.59
2023-12-11T12:04:55.309Z,96.46
2023-12-11T12:07:23.948Z,95.94
2023-12-11T12:09:53.127Z,95.81
2023-12-11T12:12:20.763Z,96.60
2023-12-11T12:14:48.315Z,95.84
2023-12-11T12:17:16.080Z,96.23
2023-12-11T12:19:45.001Z,96.58
2023-12-11T12:22:14.629Z,96.46
2023-12-11T12:24:43.955Z,97.04
2023-12-11T12:27:13.694Z,97.37
2023-12-11T12:29:41.967Z,97.15
2023-12-11T12:32:10.519Z,98.25
2023-12-11T12:34:39.350Z,97.52
2023-12-11T12:37:08.903Z,98.24
2023-12-11T12:39:36.788Z,97.70
2023-12-11T12:42:04.737Z,98.52
2023-12-11T12:44:32.888Z,98.28
2023-12-11T12:47:02.938Z,97.28
2023-12-11T12:49:32.987Z,96.97
2023-12-11T12:52:01.557Z,97.34
2023-12-11T12:54:48.505Z,96.64
2023-12-11T12:57:17.508Z,97.95
2023-12-11T12:59:45.309Z,97.52
2023-12-11T13:02:14.911Z,97.98
2023-12-11T13:04:53.126Z,98.31
2023-12-11T13:07:23.276Z,98.86
2023-12-11T13:09:53.403Z,98.48
2023-12-11T13:12:22.097Z,98.64
2023-12-11T13:14:50.855Z,97.80
2023-12-11T13:17:18.538Z,98.00
2023-12-11T13:19:46.317Z,98.52
2023-12-11T13:22:15.040Z,99.03
2023-12-11T13:24:42.717Z,98.20
2023-12-11T13:27:11.684Z,98.40
2023-12-11T13:29:39.221Z,98.01
2023-12-11T13:32:07.929Z,98.35
2023-12-11T13:34:35.604Z,98.94
2023-12-11T13:37:03.451Z,97.74
2023-12-11T13:39:31.099Z,97.81
2023-12-11T13:41:58.719Z,97.69
2023-12-11T13:44:27.623Z,96.77
2023-12-11T13:46:55.192Z,96.67
2023-12-11T13:49:23.011Z,97.36
2023-12-11T13:51:50.966Z,96.50
2023-12-11T13:54:18.571Z,96.91
2023-12-11T13:56:47.750Z,96.88
2023-12-11T13:59:16.485Z,96.84
2023-12-11T14:01:45.488Z,97.52
2023-12-11T14:04:13.494Z,97.94
2023-12-11T14:06:42.843Z,97.55
2023-12-11T14:09:11.026Z,97.79
2023-12-11T14:11:38.614Z,97.95
2023-12-11T14:14:06.241Z,98.22
2023-12-11T14:16:34.021Z,97.61
2023-12-11T14:19:03.934Z,96.70
2023-12-11T14:21:31.675Z,97.54
2023-12-11T14:23:59.269Z,97.81
2023-12-11T14:26:26.846Z,97.26
2023-12-11T14:28:54.397Z,97.70
2023-12-11T14:31:22.035Z,97.96
2023-12-11T14:33:49.793Z,97.83
2023-12-11T14:36:25.086Z,98.15
2023-12-11T14:38:54.708Z,98.11
2023-12-11T14:41:22.290Z,98.21
2023-12-11T14:43:49.844Z,98.58
2023-12-11T14:46:17.480Z,98.71
2023-12-11T14:48:46.367Z,98.26
2023-12-11T14:51:14.012Z,99.09
2023-12-11T14:53:42.992Z,98.59
2023-12-11T14:56:11.128Z,98.94
2023-12-11T14:58:38.701Z,98.67
2023-12-11T15:01:06.496Z,98.83
2023-12-11T15:03:34.269Z,98.74
2023-12-11T15:06:02.964Z,98.99
2023-12-11T15:08:31.100Z,99.24
2023-12-11T15:11:00.281Z,99.55
2023-12-11T15:13:28.771Z,99.11
2023-12-11T15:15:57.414Z,99.49
2023-12-11T15:18:25.686Z,99.16
2023-12-11T15:20:53.405Z,99.96
2023-12-11T15:23:21.077Z,98.86
2023-12-11T15:25:48.689Z,99.78
2023-12-11T15:28:17.628Z,100.00
2023-12-11T15:30:45.991Z,99.79
2023-12-11T15:33:13.709Z,100.00
2023-12-11T15:35:41.285Z,99.19
2023-12-11T15:38:08.855Z,100.00
2023-12-11T15:40:36.450Z,100.00
2023-12-11T15:43:04.846Z,99.69
2023-12-11T15:45:33.792Z,99.44
2023-12-11T15:48:03.248Z,99.15
2023-12-11T15:50:31.935Z,98.82
2023-12-11T15:52:59.697Z,99.90
2023-12-11T15:55:27.498Z,99.94
2023-12-11T15:57:55.242Z,100.00
2023-12-11T16:00:23.017Z,99.28
2023-12-11T16:02:53.743Z,99.88
2023-12-11T16:05:21.450Z,99.80
2023-12-11T16:07:49.074Z,100.00
2023-12-11T16:10:16.744Z,99.11
2023-12-11T16:12:44.447Z,98.87
2023-12-11T16:15:12.796Z,99.10
2023-12-11T16:17:40.394Z,99.68
2023-12-11T16:20:10.851Z,99.44
2023-12-11T16:22:38.509Z,97.95
2023-12-11T16:25:11.651Z,98.23
2023-12-11T16:27:39.841Z,96.14
2023-12-11T16:30:10.673Z,96.35
2023-12-11T16:32:38.363Z,94.18
2023-12-11T16:35:07.686Z,93.64
2023-12-11T16:37:36.768Z,92.32
2023-12-11T16:40:07.381Z,89.82
2023-12-11T16:42:35.841Z,91.78
2023-12-11T16:45:04.132Z,91.97
2023-12-11T16:47:31.772Z,92.49
2023-12-11T16:50:06.586Z,92.69
2023-12-11T16:52:37.558Z,91.66
2023-12-11T16:55:07.560Z,92.10
2023-12-11T16:57:35.321Z,93.25
2023-12-11T17:00:03.465Z,93.21
2023-12-11T17:02:31.253Z,93.40
2023-12-11T17:04:58.965Z,93.62
2023-12-11T17:07:26.728Z,93.94
2023-12-11T17:09:56.769Z,93.91
2023-12-11T17:12:24.499Z,93.82
2023-12-11T17:14:54.529Z,92.65
2023-12-11T17:17:23.497Z,93.41
2023-12-11T17:19:51.189Z,93.53
2023-12-11T17:22:19.206Z,93.85
2023-12-11T17:24:46.783Z,94.12
2023-12-11T17:27:15.765Z,93.28
2023-12-11T17:29:43.640Z,93.30
2023-12-11T17:32:11.230Z,93.48
2023-12-11T17:34:39.019Z,92.96
2023-12-11T17:37:06.694Z,94.82
2023-12-11T17:39:34.248Z,92.48
2023-12-11T17:42:01.842Z,92.40
2023-12-11T17:44:30.998Z,92.40
2023-12-11T17:46:58.544Z,88.36
2023-12-11T17:49:26.984Z,88.66
2023-12-11T17:51:54.826Z,88.61
2023-12-11T17:54:22.962Z,88.54
2023-12-11T17:56:50.511Z,85.28
2023-12-11T17:59:18.127Z,86.40
2023-12-11T18:01:47.189Z,86.91
2023-12-11T18:04:17.010Z,87.94
2023-12-11T18:06:44.754Z,87.91
2023-12-11T18:09:12.760Z,89.70
2023-12-11T18:11:40.287Z,87.46
2023-12-11T18:14:07.850Z,89.24
2023-12-11T18:16:35.479Z,88.83
2023-12-11T18:19:04.747Z,88.05
2023-12-11T18:21:32.411Z,89.35
2023-12-11T18:23:59.987Z,90.06
2023-12-11T18:26:27.537Z,91.84
2023-12-11T18:28:55.702Z,92.62
2023-12-11T18:31:23.552Z,93.22
2023-12-11T18:33:51.284Z,90.84
2023-12-11T18:36:20.264Z,92.39
2023-12-11T18:38:47.846Z,93.27
2023-12-11T18:41:22.440Z,93.14
2023-12-11T18:43:49.992Z,90.89
2023-12-11T18:46:19.125Z,90.93
2023-12-11T18:48:47.109Z,90.27
2023-12-11T18:51:26.289Z,92.27
2023-12-11T18:53:53.917Z,89.31
2023-12-11T18:56:23.322Z,89.86
2023-12-11T18:58:51.083Z,89.42
2023-12-11T19:01:18.752Z,89.84
2023-12-11T19:03:46.610Z,90.54
2023-12-11T19:06:14.525Z,89.62
2023-12-11T19:08:43.453Z,88.83
2023-12-11T19:11:13.335Z,90.36
2023-12-11T19:13:40.920Z,89.72
2023-12-11T19:16:09.407Z,90.50
2023-12-11T19:18:37.638Z,91.68
2023-12-11T19:21:06.334Z,91.90
2023-12-11T19:23:33.933Z,93.14
2023-12-11T19:26:02.830Z,92.34
2023-12-11T19:28:30.456Z,92.40
2023-12-11T19:30:58.238Z,93.63
2023-12-11T19:33:26.000Z,94.19
2023-12-11T19:35:53.689Z,94.45
2023-12-11T19:38:21.245Z,94.08
2023-12-11T19:40:48.780Z,94.48
2023-12-11T19:43:17.675Z,95.45
2023-12-11T19:45:45.265Z,96.49
2023-12-11T19:48:13.058Z,95.71
2023-12-11T19:50:40.700Z,96.31
2023-12-11T19:53:08.284Z,95.65
2023-12-11T19:55:35.972Z,95.39
2023-12-11T19:58:03.637Z,96.90
2023-12-11T20:00:32.603Z,96.67
2023-12-11T20:03:00.278Z,97.29
2023-12-11T20:05:28.029Z,96.79
2023-12-11T20:07:55.752Z,96.65
2023-12-11T20:10:23.485Z,97.07
2023-12-11T20:12:51.211Z,97.88
2023-12-11T20:15:19.182Z,97.45
2023-12-11T20:17:48.315Z,96.89
2023-12-11T20:20:16.023Z,97.86
2023-12-11T20:22:45.124Z,97.14
2023-12-11T20:25:12.847Z,97.69
2023-12-11T20:27:40.467Z,97.69
2023-12-11T20:30:09.381Z,96.87
2023-12-11T20:32:37.319Z,97.98
2023-12-11T20:35:07.321Z,97.35
2023-12-11T20:37:37.508Z,98.30
2023-12-11T20:40:05.806Z,98.38
2023-12-11T20:42:33.470Z,97.98
2023-12-11T20:45:01.137Z,97.35
2023-12-11T20:47:28.890Z,97.01
2023-12-11T20:49:56.713Z,97.18
2023-12-11T20:52:25.752Z,97.59
2023-12-11T20:54:53.353Z,96.30
2023-12-11T20:57:20.920Z,96.78
2023-12-11T20:59:48.480Z,96.83
2023-12-11T21:02:16.155Z,93.49
2023-12-11T21:04:44.152Z,94.44
2023-12-11T21:07:11.778Z,94.83
2023-12-11T21:09:43.628Z,94.76
2023-12-11T21:12:11.214Z,89.63
2023-12-11T21:14:39.308Z,91.14
2023-12-11T21:17:06.876Z,91.49
2023-12-11T21:19:34.601Z,87.64
2023-12-11T21:22:02.188Z,89.56
2023-12-11T21:24:29.755Z,89.24
2023-12-11T21:26:58.658Z,86.88
2023-12-11T21:29:26.258Z,85.54
2023-12-11T21:31:53.932Z,87.22
2023-12-11T21:34:21.575Z,85.53
2023-12-11T21:36:49.152Z,87.41
2023-12-11T21:39:17.913Z,85.13
2023-12-11T21:41:45.555Z,85.07
2023-12-11T21:44:14.479Z,85.31
2023-12-11T21:46:42.014Z,87.30
2023-12-11T21:49:09.725Z,86.95
2023-12-11T21:51:37.340Z,87.43
2023-12-11T21:54:05.305Z,86.97
2023-12-11T21:56:34.335Z,87.63
2023-12-11T21:59:01.908Z,86.32
2023-12-11T22:01:30.867Z,88.03
2023-12-11T22:03:58.490Z,88.24
2023-12-11T22:06:26.059Z,86.95
2023-12-11T22:08:53.801Z,89.33
2023-12-11T22:11:23.187Z,88.17
2023-12-11T22:13:50.793Z,89.74
2023-12-11T22:16:18.401Z,90.39
2023-12-11T22:18:48.695Z,89.97
2023-12-11T22:21:22.732Z,88.82
2023-12-11T22:23:50.360Z,89.25
2023-12-11T22:26:18.037Z,88.64
2023-12-11T22:28:46.293Z,89.23
2023-12-11T22:31:13.937Z,87.90
2023-12-11T22:33:41.637Z,87.73
2023-12-11T22:36:10.752Z,88.91
2023-12-11T22:38:38.793Z,88.37
2023-12-11T22:41:06.420Z,89.09
2023-12-11T22:43:34.031Z,88.29
2023-12-11T22:46:01.666Z,89.20
2023-12-11T22:48:29.370Z,88.91
2023-12-11T22:50:56.981Z,87.07
2023-12-11T22:53:25.844Z,87.30
2023-12-11T22:55:53.408Z,85.48
2023-12-11T22:58:21.009Z,85.79
2023-12-11T23:00:48.656Z,87.22
2023-12-11T23:03:16.250Z,86.38
2023-12-11T23:05:43.929Z,86.06
2023-12-11T23:08:11.580Z,83.80
2023-12-11T23:10:40.557Z,84.14
2023-12-11T23:13:08.214Z,85.64
2023-12-11T23:15:35.802Z,86.55
2023-12-11T23:18:03.446Z,85.46
2023-12-11T23:20:31.037Z,86.22
2023-12-11T23:22:58.639Z,84.89
2023-12-11T23:25:26.241Z,86.11
2023-12-11T23:27:55.162Z,85.04
2023-12-11T23:30:22.726Z,86.27
2023-12-11T23:32:50.384Z,86.82
2023-12-11T23:35:18.091Z,85.41
2023-12-11T23:37:45.656Z,86.32
2023-12-11T23:40:13.526Z,86.22
2023-12-11T23:42:41.151Z,87.19
2023-12-11T23:45:10.690Z,86.65
2023-12-11T23:47:38.783Z,87.99
2023-12-11T23:50:08.028Z,87.30
2023-12-11T23:52:35.750Z,88.30
2023-12-11T23:55:04.293Z,88.21
2023-12-11T23:57:32.158Z,88.38
2023-12-11T23:59:59.948Z,88.78
